Brownson, Nebraska
Current Conditions -  °F | °C
As of 9:53 PM on Friday 19 Dec 2014 (Local Time) from KSNY Reporting Station
Clear Clear  
Wind Chill: 11°   Ceiling: Unl
Heat Index: 18°   Visibility: 10mi
Dew Point: 13°   Wind: 5mph
Humidity: 81%   Direction: 280°W
Pressure: 30"   Gusts: NA
Location:  41.108°N, 103.012°W
Report Text: KSNY 200453Z AUTO 28004KT 10SM CLR M08/M11 A3000 RMK AO2 SLP200 T10781106
Loading
Personal Weather Stations






























Interactive Weather Map New forecast layout! Learn more

10-Day Weather Forecast

Advertisements
Track Severe Weather on mobile